Terminal Aerodrome Forecast
Issued by NWS Knoxville/Tri Cities, TN

Home | Current Version | Previous Version | Text Only | Print | Product List | Glossary On
Versions: 1 2 3 4 5 6 7 8 9 10 11 12 13 14 15 16 17 18 19 20 21 22 23 24 25 26 27 28 29 30 31 32
000
FTUS44 KMRX 171720
TAFCHA
TAF
KCHA 171720Z 1718/1818 19010G18KT P6SM VCSH OVC020
     FM172200 20010KT 6SM SHRA VCTS OVC020CB
     FM180300 23006KT 4SM -SHRA BR BKN009
     FM180900 32004KT 4SM BR OVC005
     FM181300 01005KT P6SM OVC050=

USA.gov is the U.S. government's official web portal to all federal, state and local government web resources and services.